sensor_id;sensor_type;location;lat;lon;timestamp;temperature;humidity
51725;DHT22;37801;53.224;6.552;2023-03-12T16:07:41;7.80;99.90
51725;DHT22;37801;53.224;6.552;2023-03-12T16:10:12;7.50;99.90
51725;DHT22;37801;53.224;6.552;2023-03-12T16:12:38;7.60;99.90
51725;DHT22;37801;53.224;6.552;2023-03-12T16:15:05;7.50;99.90
51725;DHT22;37801;53.224;6.552;2023-03-12T16:17:30;7.60;99.90
51725;DHT22;37801;53.224;6.552;2023-03-12T16:19:56;7.50;99.90
51725;DHT22;37801;53.224;6.552;2023-03-12T16:22:22;7.60;99.90
51725;DHT22;37801;53.224;6.552;2023-03-12T16:24:48;7.60;99.90
51725;DHT22;37801;53.224;6.552;2023-03-12T16:27:14;7.50;99.90
51725;DHT22;37801;53.224;6.552;2023-03-12T16:29:41;7.50;99.90
51725;DHT22;37801;53.224;6.552;2023-03-12T16:32:11;7.40;99.90
51725;DHT22;37801;53.224;6.552;2023-03-12T16:34:38;7.40;99.90
51725;DHT22;37801;53.224;6.552;2023-03-12T16:37:05;7.40;99.90
51725;DHT22;37801;53.224;6.552;2023-03-12T16:39:30;7.30;99.90
51725;DHT22;37801;53.224;6.552;2023-03-12T16:42:00;7.30;99.90
51725;DHT22;37801;53.224;6.552;2023-03-12T16:44:29;7.20;99.90
51725;DHT22;37801;53.224;6.552;2023-03-12T16:46:56;7.20;99.90
51725;DHT22;37801;53.224;6.552;2023-03-12T16:49:22;7.10;99.90
51725;DHT22;37801;53.224;6.552;2023-03-12T16:51:48;7.10;99.90
51725;DHT22;37801;53.224;6.552;2023-03-12T16:54:14;7.10;99.90
51725;DHT22;37801;53.224;6.552;2023-03-12T16:56:45;7.10;99.90
51725;DHT22;37801;53.224;6.552;2023-03-12T16:59:22;7.00;99.90
51725;DHT22;37801;53.224;6.552;2023-03-12T17:01:49;7.00;99.90
51725;DHT22;37801;53.224;6.552;2023-03-12T17:04:15;7.00;99.90
51725;DHT22;37801;53.224;6.552;2023-03-12T17:06:40;6.90;99.90
51725;DHT22;37801;53.224;6.552;2023-03-12T17:09:06;6.90;99.90
51725;DHT22;37801;53.224;6.552;2023-03-12T17:11:33;6.90;99.90
51725;DHT22;37801;53.224;6.552;2023-03-12T17:14:22;6.80;99.90
51725;DHT22;37801;53.224;6.552;2023-03-12T17:16:48;6.80;99.90
51725;DHT22;37801;53.224;6.552;2023-03-12T17:19:14;6.80;99.90
51725;DHT22;37801;53.224;6.552;2023-03-12T17:21:40;6.80;99.90
51725;DHT22;37801;53.224;6.552;2023-03-12T17:24:10;6.80;99.90
51725;DHT22;37801;53.224;6.552;2023-03-12T17:26:36;6.70;99.90
51725;DHT22;37801;53.224;6.552;2023-03-12T17:29:01;6.70;99.90
51725;DHT22;37801;53.224;6.552;2023-03-12T17:31:27;6.70;99.90
51725;DHT22;37801;53.224;6.552;2023-03-12T17:33:53;6.60;99.90
51725;DHT22;37801;53.224;6.552;2023-03-12T17:36:18;6.60;99.90
51725;DHT22;37801;53.224;6.552;2023-03-12T17:38:44;6.60;99.90
51725;DHT22;37801;53.224;6.552;2023-03-12T17:41:10;6.60;99.90
51725;DHT22;37801;53.224;6.552;2023-03-12T17:43:37;6.60;99.90
51725;DHT22;37801;53.224;6.552;2023-03-12T17:46:07;6.60;99.90
51725;DHT22;37801;53.224;6.552;2023-03-12T17:48:34;6.50;99.90
51725;DHT22;37801;53.224;6.552;2023-03-12T17:51:09;6.60;99.90
51725;DHT22;37801;53.224;6.552;2023-03-12T17:53:36;6.60;99.90
51725;DHT22;37801;53.224;6.552;2023-03-12T17:56:05;6.60;99.90
51725;DHT22;37801;53.224;6.552;2023-03-12T17:58:30;6.60;99.90
51725;DHT22;37801;53.224;6.552;2023-03-12T18:00:59;6.60;99.90
51725;DHT22;37801;53.224;6.552;2023-03-12T18:03:25;6.50;99.90
51725;DHT22;37801;53.224;6.552;2023-03-12T18:05:51;6.60;99.90
51725;DHT22;37801;53.224;6.552;2023-03-12T18:08:17;6.60;99.90
51725;DHT22;37801;53.224;6.552;2023-03-12T18:10:42;6.60;99.90
51725;DHT22;37801;53.224;6.552;2023-03-12T18:13:08;6.60;99.90
51725;DHT22;37801;53.224;6.552;2023-03-12T18:15:36;6.60;99.90
51725;DHT22;37801;53.224;6.552;2023-03-12T18:18:01;6.60;99.90
51725;DHT22;37801;53.224;6.552;2023-03-12T18:20:27;6.60;99.90
51725;DHT22;37801;53.224;6.552;2023-03-12T18:22:53;6.60;99.90
51725;DHT22;37801;53.224;6.552;2023-03-12T18:25:19;6.60;99.90
51725;DHT22;37801;53.224;6.552;2023-03-12T18:27:44;6.60;99.90
51725;DHT22;37801;53.224;6.552;2023-03-12T18:30:10;6.60;99.90
51725;DHT22;37801;53.224;6.552;2023-03-12T18:32:38;6.60;99.90
51725;DHT22;37801;53.224;6.552;2023-03-12T18:35:06;6.60;99.90
51725;DHT22;37801;53.224;6.552;2023-03-12T18:37:32;6.60;99.90
51725;DHT22;37801;53.224;6.552;2023-03-12T18:39:58;6.60;99.90
51725;DHT22;37801;53.224;6.552;2023-03-12T18:42:24;6.60;99.90
51725;DHT22;37801;53.224;6.552;2023-03-12T18:44:49;6.60;99.90
51725;DHT22;37801;53.224;6.552;2023-03-12T18:47:16;6.50;99.90
51725;DHT22;37801;53.224;6.552;2023-03-12T18:49:42;6.50;99.90
51725;DHT22;37801;53.224;6.552;2023-03-12T18:52:08;6.60;99.90
51725;DHT22;37801;53.224;6.552;2023-03-12T18:54:34;6.60;99.90
51725;DHT22;37801;53.224;6.552;2023-03-12T18:57:00;6.60;99.90
51725;DHT22;37801;53.224;6.552;2023-03-12T18:59:26;6.50;99.90
51725;DHT22;37801;53.224;6.552;2023-03-12T19:01:52;6.60;99.90
51725;DHT22;37801;53.224;6.552;2023-03-12T19:04:20;6.60;99.90
51725;DHT22;37801;53.224;6.552;2023-03-12T19:06:46;6.50;99.90
51725;DHT22;37801;53.224;6.552;2023-03-12T19:09:11;6.60;99.90
51725;DHT22;37801;53.224;6.552;2023-03-12T19:11:38;6.50;99.90
51725;DHT22;37801;53.224;6.552;2023-03-12T19:14:04;6.60;99.90
51725;DHT22;37801;53.224;6.552;2023-03-12T19:16:30;6.60;99.90
51725;DHT22;37801;53.224;6.552;2023-03-12T19:18:56;6.60;99.90
51725;DHT22;37801;53.224;6.552;2023-03-12T19:21:22;6.60;99.90
51725;DHT22;37801;53.224;6.552;2023-03-12T19:23:48;6.60;99.90
51725;DHT22;37801;53.224;6.552;2023-03-12T19:26:14;6.60;99.90
51725;DHT22;37801;53.224;6.552;2023-03-12T19:28:40;6.60;99.90
51725;DHT22;37801;53.224;6.552;2023-03-12T19:31:09;6.60;99.90
51725;DHT22;37801;53.224;6.552;2023-03-12T19:33:36;6.60;99.90
51725;DHT22;37801;53.224;6.552;2023-03-12T19:36:02;6.60;99.90
51725;DHT22;37801;53.224;6.552;2023-03-12T19:38:28;6.70;99.90
51725;DHT22;37801;53.224;6.552;2023-03-12T19:40:55;6.70;99.90
51725;DHT22;37801;53.224;6.552;2023-03-12T19:43:22;6.70;99.90
51725;DHT22;37801;53.224;6.552;2023-03-12T19:45:48;6.70;99.90
51725;DHT22;37801;53.224;6.552;2023-03-12T19:48:15;6.70;99.90
51725;DHT22;37801;53.224;6.552;2023-03-12T19:50:41;6.60;99.90
51725;DHT22;37801;53.224;6.552;2023-03-12T19:53:09;6.70;99.90
51725;DHT22;37801;53.224;6.552;2023-03-12T19:55:35;6.70;99.90
51725;DHT22;37801;53.224;6.552;2023-03-12T19:58:01;6.70;99.90
51725;DHT22;37801;53.224;6.552;2023-03-12T20:00:28;6.70;99.90
51725;DHT22;37801;53.224;6.552;2023-03-12T20:02:54;6.70;99.90
51725;DHT22;37801;53.224;6.552;2023-03-12T20:05:20;6.70;99.90
51725;DHT22;37801;53.224;6.552;2023-03-12T20:07:46;6.80;99.90
51725;DHT22;37801;53.224;6.552;2023-03-12T20:10:14;6.70;99.90
51725;DHT22;37801;53.224;6.552;2023-03-12T20:12:40;6.70;99.90
51725;DHT22;37801;53.224;6.552;2023-03-12T20:15:06;6.60;99.90
51725;DHT22;37801;53.224;6.552;2023-03-12T20:17:32;6.70;99.90
51725;DHT22;37801;53.224;6.552;2023-03-12T20:19:58;6.60;99.90
51725;DHT22;37801;53.224;6.552;2023-03-12T20:22:24;6.60;99.90
51725;DHT22;37801;53.224;6.552;2023-03-12T20:24:53;6.60;99.90
51725;DHT22;37801;53.224;6.552;2023-03-12T20:27:19;6.60;99.90
51725;DHT22;37801;53.224;6.552;2023-03-12T20:29:45;6.70;99.90
51725;DHT22;37801;53.224;6.552;2023-03-12T20:32:12;6.70;99.90
51725;DHT22;37801;53.224;6.552;2023-03-12T20:34:38;6.70;99.90
51725;DHT22;37801;53.224;6.552;2023-03-12T20:37:03;6.70;99.90
51725;DHT22;37801;53.224;6.552;2023-03-12T20:39:29;6.70;99.90
51725;DHT22;37801;53.224;6.552;2023-03-12T20:41:55;6.70;99.90
51725;DHT22;37801;53.224;6.552;2023-03-12T20:44:21;6.80;99.90
51725;DHT22;37801;53.224;6.552;2023-03-12T20:46:46;6.80;99.90
51725;DHT22;37801;53.224;6.552;2023-03-12T20:49:13;6.80;99.90
51725;DHT22;37801;53.224;6.552;2023-03-12T20:51:38;6.80;99.90
51725;DHT22;37801;53.224;6.552;2023-03-12T20:54:05;6.90;99.90
51725;DHT22;37801;53.224;6.552;2023-03-12T20:56:31;6.90;99.90
51725;DHT22;37801;53.224;6.552;2023-03-12T20:58:56;6.90;99.90
51725;DHT22;37801;53.224;6.552;2023-03-12T21:01:24;7.00;99.90
51725;DHT22;37801;53.224;6.552;2023-03-12T21:03:50;7.00;99.90
51725;DHT22;37801;53.224;6.552;2023-03-12T21:06:15;7.00;99.90
51725;DHT22;37801;53.224;6.552;2023-03-12T21:08:41;7.00;99.90
51725;DHT22;37801;53.224;6.552;2023-03-12T21:11:07;7.10;99.90
51725;DHT22;37801;53.224;6.552;2023-03-12T21:13:35;7.10;99.90
51725;DHT22;37801;53.224;6.552;2023-03-12T21:16:04;7.10;99.90
51725;DHT22;37801;53.224;6.552;2023-03-12T21:18:30;7.20;99.90
51725;DHT22;37801;53.224;6.552;2023-03-12T21:21:00;7.20;99.90
51725;DHT22;37801;53.224;6.552;2023-03-12T21:23:26;7.20;99.90
51725;DHT22;37801;53.224;6.552;2023-03-12T21:25:57;7.20;99.90
51725;DHT22;37801;53.224;6.552;2023-03-12T21:28:24;7.20;99.90
51725;DHT22;37801;53.224;6.552;2023-03-12T21:30:50;7.20;99.90
51725;DHT22;37801;53.224;6.552;2023-03-12T21:33:16;7.30;99.90
51725;DHT22;37801;53.224;6.552;2023-03-12T21:35:46;7.20;99.90
51725;DHT22;37801;53.224;6.552;2023-03-12T21:38:12;7.20;99.90
51725;DHT22;37801;53.224;6.552;2023-03-12T21:40:38;7.20;99.90
51725;DHT22;37801;53.224;6.552;2023-03-12T21:43:04;7.20;99.90
51725;DHT22;37801;53.224;6.552;2023-03-12T21:45:30;7.30;99.90
51725;DHT22;37801;53.224;6.552;2023-03-12T21:47:56;7.20;99.90
51725;DHT22;37801;53.224;6.552;2023-03-12T21:50:22;7.20;99.90
51725;DHT22;37801;53.224;6.552;2023-03-12T21:52:47;7.20;99.90
51725;DHT22;37801;53.224;6.552;2023-03-12T21:55:17;7.20;99.90
51725;DHT22;37801;53.224;6.552;2023-03-12T21:57:44;7.20;99.90
51725;DHT22;37801;53.224;6.552;2023-03-12T22:00:11;7.20;99.90
51725;DHT22;37801;53.224;6.552;2023-03-12T22:02:39;7.20;99.90
51725;DHT22;37801;53.224;6.552;2023-03-12T22:05:06;7.30;99.90
51725;DHT22;37801;53.224;6.552;2023-03-12T22:07:32;7.20;99.90
51725;DHT22;37801;53.224;6.552;2023-03-12T22:09:58;7.20;99.90
51725;DHT22;37801;53.224;6.552;2023-03-12T22:12:24;7.30;99.90
51725;DHT22;37801;53.224;6.552;2023-03-12T22:14:50;7.30;99.90
51725;DHT22;37801;53.224;6.552;2023-03-12T22:17:15;7.30;99.90
51725;DHT22;37801;53.224;6.552;2023-03-12T22:19:42;7.30;99.90
51725;DHT22;37801;53.224;6.552;2023-03-12T22:22:08;7.30;99.90
51725;DHT22;37801;53.224;6.552;2023-03-12T22:24:33;7.40;99.90
51725;DHT22;37801;53.224;6.552;2023-03-12T22:26:59;7.30;99.90
51725;DHT22;37801;53.224;6.552;2023-03-12T22:29:26;7.40;99.90
51725;DHT22;37801;53.224;6.552;2023-03-12T22:31:52;7.40;99.90
51725;DHT22;37801;53.224;6.552;2023-03-12T22:34:18;7.40;99.90
51725;DHT22;37801;53.224;6.552;2023-03-12T22:36:43;7.40;99.90
51725;DHT22;37801;53.224;6.552;2023-03-12T22:39:09;7.40;99.90
51725;DHT22;37801;53.224;6.552;2023-03-12T22:41:35;7.40;99.90
51725;DHT22;37801;53.224;6.552;2023-03-12T22:44:04;7.40;99.90
51725;DHT22;37801;53.224;6.552;2023-03-12T22:46:30;7.40;99.90
51725;DHT22;37801;53.224;6.552;2023-03-12T22:48:58;7.40;99.90
51725;DHT22;37801;53.224;6.552;2023-03-12T22:51:26;7.40;99.90
51725;DHT22;37801;53.224;6.552;2023-03-12T22:53:52;7.50;99.90
51725;DHT22;37801;53.224;6.552;2023-03-12T22:56:18;7.40;99.90
51725;DHT22;37801;53.224;6.552;2023-03-12T22:58:44;7.40;99.90
51725;DHT22;37801;53.224;6.552;2023-03-12T23:01:12;7.40;99.90
51725;DHT22;37801;53.224;6.552;2023-03-12T23:03:40;7.40;99.90
51725;DHT22;37801;53.224;6.552;2023-03-12T23:06:11;7.40;99.90
51725;DHT22;37801;53.224;6.552;2023-03-12T23:08:37;7.40;99.90
51725;DHT22;37801;53.224;6.552;2023-03-12T23:11:03;7.40;99.90
51725;DHT22;37801;53.224;6.552;2023-03-12T23:13:32;7.50;99.90
51725;DHT22;37801;53.224;6.552;2023-03-12T23:16:03;7.40;99.90
51725;DHT22;37801;53.224;6.552;2023-03-12T23:18:29;7.50;99.90
51725;DHT22;37801;53.224;6.552;2023-03-12T23:21:04;7.50;99.90
51725;DHT22;37801;53.224;6.552;2023-03-12T23:23:31;7.50;99.90
51725;DHT22;37801;53.224;6.552;2023-03-12T23:25:59;7.50;99.90
51725;DHT22;37801;53.224;6.552;2023-03-12T23:28:26;7.50;99.90
51725;DHT22;37801;53.224;6.552;2023-03-12T23:30:58;7.50;99.90
51725;DHT22;37801;53.224;6.552;2023-03-12T23:33:25;7.50;99.90
51725;DHT22;37801;53.224;6.552;2023-03-12T23:35:57;7.60;99.90
51725;DHT22;37801;53.224;6.552;2023-03-12T23:38:24;7.50;99.90
51725;DHT22;37801;53.224;6.552;2023-03-12T23:40:50;7.50;99.90
51725;DHT22;37801;53.224;6.552;2023-03-12T23:43:16;7.50;99.90
51725;DHT22;37801;53.224;6.552;2023-03-12T23:45:42;7.60;99.90
51725;DHT22;37801;53.224;6.552;2023-03-12T23:48:08;7.60;99.90
51725;DHT22;37801;53.224;6.552;2023-03-12T23:50:34;7.60;99.90
51725;DHT22;37801;53.224;6.552;2023-03-12T23:53:00;7.60;99.90
51725;DHT22;37801;53.224;6.552;2023-03-12T23:55:26;7.60;99.90
51725;DHT22;37801;53.224;6.552;2023-03-12T23:57:51;7.60;99.90
